createdAt,value
2022-10-17T00:00:53.438Z,69.68
2022-10-17T00:03:20.105Z,69.58
2022-10-17T00:05:47.347Z,69.88
2022-10-17T00:08:14.863Z,70.23
2022-10-17T00:10:42.018Z,69.90
2022-10-17T00:13:09.148Z,70.02
2022-10-17T00:15:35.814Z,70.18
2022-10-17T00:18:02.689Z,70.04
2022-10-17T00:20:30.543Z,70.01
2022-10-17T00:22:57.363Z,70.00
2022-10-17T00:25:24.067Z,70.01
2022-10-17T00:27:50.725Z,70.04
2022-10-17T00:30:17.506Z,69.94
2022-10-17T00:32:44.198Z,69.81
2022-10-17T00:35:11.002Z,70.10
2022-10-17T00:37:37.788Z,69.96
2022-10-17T00:40:06.018Z,69.79
2022-10-17T00:42:32.735Z,69.99
2022-10-17T00:45:09.199Z,69.97
2022-10-17T00:47:36.000Z,70.22
2022-10-17T00:50:03.193Z,70.12
2022-10-17T00:52:30.483Z,70.28
2022-10-17T00:55:22.398Z,70.25
2022-10-17T00:57:49.177Z,70.21
2022-10-17T01:00:16.353Z,70.16
2022-10-17T01:02:43.115Z,70.27
2022-10-17T01:05:09.911Z,70.57
2022-10-17T01:07:37.377Z,70.30
2022-10-17T01:10:05.746Z,70.60
2022-10-17T01:13:12.635Z,70.45
2022-10-17T01:16:18.061Z,70.43
2022-10-17T01:19:03.244Z,70.52
2022-10-17T01:21:37.567Z,70.64
2022-10-17T01:24:23.142Z,70.55
2022-10-17T01:27:22.155Z,70.59
2022-10-17T01:30:30.026Z,70.67
2022-10-17T01:32:58.818Z,70.48
2022-10-17T01:35:34.075Z,70.37
2022-10-17T01:38:08.648Z,70.42
2022-10-17T01:41:14.384Z,70.05
2022-10-17T01:44:01.650Z,70.25
2022-10-17T01:46:30.318Z,70.32
2022-10-17T01:48:57.291Z,70.07
2022-10-17T01:51:33.791Z,70.16
2022-10-17T01:54:05.235Z,69.82
2022-10-17T01:56:32.111Z,70.10
2022-10-17T01:59:00.734Z,69.98
2022-10-17T02:01:29.021Z,69.96
2022-10-17T02:03:55.747Z,69.89
2022-10-17T02:06:22.395Z,69.93
2022-10-17T02:08:50.479Z,70.18
2022-10-17T02:11:23.963Z,69.94
2022-10-17T02:14:08.687Z,69.78
2022-10-17T02:16:56.446Z,69.61
2022-10-17T02:19:36.692Z,69.75
2022-10-17T02:22:14.490Z,69.55
2022-10-17T02:24:50.731Z,69.25
2022-10-17T02:27:42.283Z,69.36
2022-10-17T02:30:12.616Z,69.44
2022-10-17T02:32:50.239Z,69.33
2022-10-17T02:35:20.436Z,69.23
2022-10-17T02:37:47.148Z,69.35
2022-10-17T02:40:14.502Z,69.01
2022-10-17T02:42:41.314Z,69.45
2022-10-17T02:45:08.421Z,69.34
2022-10-17T02:47:52.484Z,69.31
2022-10-17T02:50:20.793Z,69.30
2022-10-17T02:52:54.092Z,69.71
2022-10-17T02:55:25.260Z,69.67
2022-10-17T02:57:56.914Z,69.75
2022-10-17T03:00:23.939Z,69.71
2022-10-17T03:02:51.670Z,69.72
2022-10-17T03:05:22.515Z,69.69
2022-10-17T03:07:49.203Z,69.67
2022-10-17T03:10:16.046Z,69.78
2022-10-17T03:12:42.844Z,69.67
2022-10-17T03:15:10.016Z,69.48
2022-10-17T03:17:36.777Z,69.83
2022-10-17T03:20:03.932Z,69.87
2022-10-17T03:22:31.063Z,69.41
2022-10-17T03:24:58.496Z,69.62
2022-10-17T03:27:25.437Z,69.60
2022-10-17T03:29:52.031Z,69.94
2022-10-17T03:32:19.801Z,69.56
2022-10-17T03:34:46.771Z,69.82
2022-10-17T03:37:13.555Z,69.56
2022-10-17T03:39:40.553Z,69.87
2022-10-17T03:42:07.233Z,69.90
2022-10-17T03:44:34.250Z,69.92
2022-10-17T03:47:00.925Z,69.89
2022-10-17T03:49:27.604Z,69.75
2022-10-17T03:51:54.332Z,69.81
2022-10-17T03:54:21.026Z,69.79
2022-10-17T03:56:48.032Z,69.73
2022-10-17T03:59:17.838Z,69.94
2022-10-17T04:01:49.911Z,70.40
2022-10-17T04:04:17.101Z,70.47
2022-10-17T04:06:44.631Z,70.35
2022-10-17T04:09:11.306Z,70.67
2022-10-17T04:12:00.796Z,70.81
2022-10-17T04:14:27.572Z,70.67
2022-10-17T04:16:54.294Z,71.05
2022-10-17T04:19:21.284Z,70.86
2022-10-17T04:21:49.114Z,71.19
2022-10-17T04:24:15.903Z,71.62
2022-10-17T04:26:42.541Z,71.56
2022-10-17T04:29:09.315Z,71.71
2022-10-17T04:31:36.104Z,71.94
2022-10-17T04:34:07.783Z,71.83
2022-10-17T04:36:34.562Z,72.24
2022-10-17T04:39:10.451Z,72.29
2022-10-17T04:41:38.215Z,72.31
2022-10-17T04:44:05.296Z,72.58
2022-10-17T04:46:34.114Z,72.26
2022-10-17T04:49:00.708Z,72.56
2022-10-17T04:51:27.737Z,72.36
2022-10-17T04:54:13.170Z,72.39
2022-10-17T04:56:42.106Z,72.40
2022-10-17T04:59:08.762Z,72.24
2022-10-17T05:01:37.054Z,72.17
2022-10-17T05:04:03.704Z,72.13
2022-10-17T05:06:31.547Z,72.07
2022-10-17T05:09:24.675Z,71.51
2022-10-17T05:11:51.481Z,71.70
2022-10-17T05:14:18.285Z,71.71
2022-10-17T05:16:45.085Z,71.74
2022-10-17T05:19:11.860Z,71.48
2022-10-17T05:21:43.274Z,71.54
2022-10-17T05:24:11.093Z,71.41
2022-10-17T05:26:38.362Z,71.42
2022-10-17T05:29:05.491Z,70.78
2022-10-17T05:31:34.762Z,70.80
2022-10-17T05:34:02.645Z,70.67
2022-10-17T05:36:33.680Z,70.35
2022-10-17T05:39:00.991Z,70.51
2022-10-17T05:41:27.834Z,70.09
2022-10-17T05:43:54.601Z,69.98
2022-10-17T05:46:29.629Z,69.99
2022-10-17T05:48:56.424Z,69.53
2022-10-17T05:51:23.230Z,69.53
2022-10-17T05:53:49.907Z,69.36
2022-10-17T05:56:21.729Z,69.33
2022-10-17T05:58:50.931Z,68.89
2022-10-17T06:01:40.534Z,68.72
2022-10-17T06:04:07.423Z,68.52
2022-10-17T06:06:36.747Z,68.34
2022-10-17T06:09:03.967Z,68.29
2022-10-17T06:11:34.227Z,68.34
2022-10-17T06:14:01.091Z,68.08
2022-10-17T06:16:28.931Z,67.60
2022-10-17T06:18:55.604Z,67.53
2022-10-17T06:21:25.332Z,67.71
2022-10-17T06:23:55.642Z,67.16
2022-10-17T06:26:28.783Z,67.13
2022-10-17T06:28:55.949Z,67.15
2022-10-17T06:31:23.031Z,66.84
2022-10-17T06:33:50.473Z,66.70
2022-10-17T06:36:17.766Z,66.47
2022-10-17T06:38:45.216Z,66.46
2022-10-17T06:41:34.759Z,66.13
2022-10-17T06:44:10.936Z,65.79
2022-10-17T06:46:56.368Z,65.45
2022-10-17T06:49:23.215Z,65.31
2022-10-17T06:52:10.510Z,65.17
2022-10-17T06:54:51.964Z,65.21
2022-10-17T07:00:30.168Z,64.51
2022-10-17T07:02:57.396Z,64.21
2022-10-17T07:05:24.160Z,63.56
2022-10-17T07:07:51.848Z,63.43
2022-10-17T07:10:19.011Z,63.34
2022-10-17T07:12:45.917Z,63.01
2022-10-17T07:15:12.823Z,62.92
2022-10-17T07:17:39.501Z,62.86
2022-10-17T07:20:06.990Z,62.55
2022-10-17T07:22:35.039Z,62.38
2022-10-17T07:25:02.024Z,62.13
2022-10-17T07:27:37.232Z,61.78
2022-10-17T07:30:04.765Z,61.37
2022-10-17T07:32:54.506Z,61.16
2022-10-17T07:35:21.578Z,61.27
2022-10-17T07:37:48.319Z,61.18
2022-10-17T07:40:17.452Z,60.57
2022-10-17T07:42:44.636Z,60.04
2022-10-17T07:45:12.152Z,59.12
2022-10-17T07:47:38.894Z,59.00
2022-10-17T07:50:08.243Z,58.59
2022-10-17T07:52:35.023Z,58.21
2022-10-17T07:55:01.619Z,57.80
2022-10-17T07:57:28.363Z,57.59
2022-10-17T07:59:55.010Z,57.25
2022-10-17T08:02:23.967Z,57.25
2022-10-17T08:04:51.386Z,56.92
2022-10-17T08:07:22.126Z,57.00
2022-10-17T08:09:52.112Z,56.50
2022-10-17T08:12:18.993Z,56.09
2022-10-17T08:14:45.748Z,56.03
2022-10-17T08:17:12.390Z,55.38
2022-10-17T08:19:40.388Z,55.27
2022-10-17T08:22:07.359Z,55.26
2022-10-17T08:24:34.081Z,54.97
2022-10-17T08:27:01.023Z,54.85
2022-10-17T08:29:27.831Z,54.57
2022-10-17T08:31:58.623Z,54.22
2022-10-17T08:34:28.422Z,53.88
2022-10-17T08:36:57.179Z,53.65
2022-10-17T08:39:23.798Z,53.80
2022-10-17T08:42:38.736Z,54.10
2022-10-17T08:45:17.477Z,53.71
2022-10-17T08:47:48.799Z,53.32
2022-10-17T08:50:28.104Z,52.85
2022-10-17T08:52:57.532Z,53.00
2022-10-17T08:55:42.794Z,52.82
2022-10-17T08:58:22.011Z,52.71
2022-10-17T09:01:13.733Z,52.41
2022-10-17T09:04:06.638Z,52.80
2022-10-17T09:06:37.499Z,52.42
2022-10-17T09:09:12.965Z,52.56
2022-10-17T09:12:20.615Z,52.20
2022-10-17T09:14:54.039Z,51.70
2022-10-17T09:17:34.967Z,51.53
2022-10-17T09:20:11.796Z,51.43
2022-10-17T09:22:42.631Z,51.42
2022-10-17T09:25:14.010Z,51.53
2022-10-17T09:27:42.923Z,51.02
2022-10-17T09:30:40.156Z,50.77
2022-10-17T09:33:28.126Z,51.11
2022-10-17T09:36:01.214Z,50.72
2022-10-17T09:38:35.228Z,50.28
2022-10-17T09:41:01.957Z,50.35
2022-10-17T09:43:28.727Z,50.35
2022-10-17T09:46:09.372Z,50.08
2022-10-17T09:48:40.240Z,50.05
2022-10-17T09:51:22.068Z,49.97
2022-10-17T09:53:55.947Z,50.06
2022-10-17T09:56:22.704Z,50.02
2022-10-17T09:58:52.930Z,49.86
2022-10-17T10:01:28.458Z,50.04
2022-10-17T10:04:13.758Z,49.57
2022-10-17T10:06:40.984Z,49.09
2022-10-17T10:11:54.867Z,48.66
2022-10-17T10:14:35.672Z,48.52
2022-10-17T10:17:07.046Z,48.13
2022-10-17T10:19:35.982Z,47.95
2022-10-17T10:22:04.404Z,47.95
2022-10-17T10:24:31.388Z,47.42
2022-10-17T10:27:07.231Z,47.28
2022-10-17T10:29:35.725Z,47.52
2022-10-17T10:32:12.345Z,47.39
2022-10-17T10:34:45.418Z,46.71
2022-10-17T10:37:18.475Z,46.94
2022-10-17T10:39:56.327Z,46.80
2022-10-17T10:42:37.351Z,46.76
2022-10-17T10:45:46.899Z,46.68
2022-10-17T10:48:25.329Z,46.24
2022-10-17T10:51:05.157Z,45.93
2022-10-17T10:53:49.955Z,45.67
2022-10-17T10:56:21.690Z,45.91
2022-10-17T10:58:55.109Z,45.68
2022-10-17T11:01:29.983Z,45.77
2022-10-17T11:04:34.368Z,45.57
2022-10-17T11:07:04.928Z,45.30
2022-10-17T11:09:43.687Z,44.92
2022-10-17T11:12:15.069Z,44.53
2022-10-17T11:15:08.051Z,44.79
2022-10-17T11:17:48.264Z,44.43
2022-10-17T11:20:20.103Z,44.52
2022-10-17T11:22:48.231Z,44.31
2022-10-17T11:25:33.486Z,43.83
2022-10-17T11:28:04.649Z,43.97
2022-10-17T11:30:56.539Z,44.10
2022-10-17T11:33:44.457Z,44.35
2022-10-17T11:36:11.263Z,44.30
2022-10-17T11:38:43.691Z,44.52
2022-10-17T11:41:17.358Z,44.21
2022-10-17T11:44:04.290Z,44.33
2022-10-17T11:46:30.980Z,44.24
2022-10-17T11:49:02.400Z,44.32
2022-10-17T11:54:30.374Z,44.03
2022-10-17T11:57:14.064Z,44.11
2022-10-17T11:59:47.231Z,43.81
2022-10-17T12:02:32.431Z,43.56
2022-10-17T12:05:12.044Z,43.95
2022-10-17T12:07:50.981Z,43.75
2022-10-17T12:10:39.650Z,44.07
2022-10-17T12:13:28.562Z,44.14
2022-10-17T12:15:56.038Z,44.11
2022-10-17T12:18:27.380Z,44.10
2022-10-17T12:21:00.414Z,43.78
2022-10-17T12:23:30.985Z,43.62
2022-10-17T12:26:04.778Z,43.37
2022-10-17T12:28:33.242Z,43.35
2022-10-17T12:31:08.756Z,43.59
2022-10-17T12:33:55.350Z,43.53
2022-10-17T12:36:22.056Z,43.45
2022-10-17T12:39:01.469Z,43.07
2022-10-17T12:41:40.589Z,43.19
2022-10-17T12:44:13.024Z,42.79
2022-10-17T12:46:58.642Z,42.78
2022-10-17T12:49:45.506Z,43.14
2022-10-17T12:52:27.494Z,42.73
2022-10-17T12:55:12.658Z,42.08
2022-10-17T12:58:02.936Z,42.14
2022-10-17T13:00:49.693Z,41.73
2022-10-17T13:03:28.569Z,41.59
2022-10-17T13:05:57.595Z,41.41
2022-10-17T13:08:35.922Z,40.92
2022-10-17T13:11:02.883Z,40.68
2022-10-17T13:13:42.710Z,40.79
2022-10-17T13:16:09.604Z,40.97
2022-10-17T13:18:36.389Z,41.30
2022-10-17T13:21:05.618Z,41.46
2022-10-17T13:23:36.758Z,41.58
2022-10-17T13:26:06.335Z,41.68
2022-10-17T13:28:35.911Z,41.93
2022-10-17T13:31:05.938Z,41.81
2022-10-17T13:33:35.359Z,41.55
2022-10-17T13:36:03.072Z,41.44
2022-10-17T13:38:32.457Z,41.59
2022-10-17T13:41:06.148Z,42.01
2022-10-17T13:43:43.511Z,42.23
2022-10-17T13:46:37.535Z,42.20
2022-10-17T13:49:34.756Z,42.18
2022-10-17T13:52:02.505Z,42.50
2022-10-17T13:54:31.984Z,42.66
2022-10-17T13:56:59.012Z,42.99
2022-10-17T13:59:47.880Z,43.09
2022-10-17T14:02:26.773Z,43.42
2022-10-17T14:05:18.376Z,43.31
2022-10-17T14:10:41.638Z,43.63
2022-10-17T14:13:08.336Z,43.60
2022-10-17T14:15:35.865Z,43.83
2022-10-17T14:18:07.728Z,43.89
2022-10-17T14:23:33.276Z,44.27
2022-10-17T14:26:18.093Z,44.49
2022-10-17T14:28:47.130Z,44.77
2022-10-17T14:31:30.202Z,44.88
2022-10-17T14:33:56.937Z,45.15
2022-10-17T14:36:37.906Z,45.08
2022-10-17T14:39:14.112Z,45.26
2022-10-17T14:41:43.984Z,45.41
2022-10-17T14:44:20.662Z,45.35
2022-10-17T14:46:50.746Z,45.60
2022-10-17T14:49:39.658Z,45.71
2022-10-17T14:52:18.273Z,45.72
2022-10-17T14:54:55.870Z,46.18
2022-10-17T14:57:26.180Z,46.51
2022-10-17T14:59:55.739Z,46.61
2022-10-17T15:02:28.437Z,47.16
2022-10-17T15:04:55.453Z,47.50
2022-10-17T15:07:22.323Z,48.11
2022-10-17T15:09:49.903Z,48.75
2022-10-17T15:12:18.526Z,49.20
2022-10-17T15:14:45.442Z,49.43
2022-10-17T15:17:18.482Z,49.37
2022-10-17T15:19:45.197Z,49.28
2022-10-17T15:22:11.907Z,49.57
2022-10-17T15:24:38.718Z,50.16
2022-10-17T15:27:19.101Z,50.73
2022-10-17T15:29:45.900Z,51.27
2022-10-17T15:32:12.675Z,52.10
2022-10-17T15:34:39.366Z,52.60
2022-10-17T15:37:06.459Z,53.57
2022-10-17T15:39:33.409Z,54.34
2022-10-17T15:42:00.361Z,54.86
2022-10-17T15:44:27.234Z,55.60
2022-10-17T15:46:53.844Z,56.24
2022-10-17T15:49:20.580Z,56.50
2022-10-17T15:51:50.306Z,57.03
2022-10-17T15:54:18.351Z,57.67
2022-10-17T15:56:48.947Z,58.04
2022-10-17T15:59:17.916Z,58.41
2022-10-17T16:01:44.695Z,59.07
2022-10-17T16:04:12.865Z,59.31
2022-10-17T16:06:39.568Z,59.76
2022-10-17T16:09:06.233Z,60.00
2022-10-17T16:11:36.615Z,60.48
2022-10-17T16:14:05.604Z,60.76
2022-10-17T16:16:32.322Z,61.06
2022-10-17T16:18:59.032Z,61.40
2022-10-17T16:21:26.577Z,61.48
2022-10-17T16:23:53.468Z,61.36
2022-10-17T16:26:20.394Z,61.55
2022-10-17T16:28:47.214Z,61.60
2022-10-17T16:31:23.902Z,61.46
2022-10-17T16:33:51.678Z,61.72
2022-10-17T16:36:18.598Z,61.75
2022-10-17T16:38:45.789Z,61.87
2022-10-17T16:41:32.080Z,61.45
2022-10-17T16:44:01.095Z,60.55
2022-10-17T16:46:28.819Z,60.49
2022-10-17T16:48:55.619Z,60.09
2022-10-17T16:51:22.264Z,59.87
2022-10-17T16:53:52.763Z,59.83
2022-10-17T16:56:20.866Z,59.63
2022-10-17T16:58:47.802Z,59.79
2022-10-17T17:01:19.756Z,59.78
2022-10-17T17:03:47.853Z,59.68
2022-10-17T17:06:22.724Z,59.68
2022-10-17T17:08:49.414Z,59.91
2022-10-17T17:11:17.430Z,60.15
2022-10-17T17:13:44.252Z,60.05
2022-10-17T17:16:12.225Z,59.47
2022-10-17T17:18:38.817Z,59.65
2022-10-17T17:21:06.898Z,59.61
2022-10-17T17:23:36.591Z,59.31
2022-10-17T17:26:09.310Z,58.92
2022-10-17T17:28:36.606Z,59.09
2022-10-17T17:31:06.663Z,59.06
2022-10-17T17:33:33.790Z,58.84
2022-10-17T17:36:01.742Z,58.85
2022-10-17T17:38:29.181Z,58.61
2022-10-17T17:40:55.894Z,58.76
2022-10-17T17:43:22.546Z,59.04
2022-10-17T17:45:49.267Z,58.96
2022-10-17T17:48:15.970Z,58.67
2022-10-17T17:50:42.677Z,58.79
2022-10-17T17:53:09.880Z,59.13
2022-10-17T17:55:36.565Z,58.95
2022-10-17T17:58:03.596Z,58.78
2022-10-17T18:00:30.561Z,58.78
2022-10-17T18:02:57.397Z,58.46
2022-10-17T18:05:24.084Z,58.32
2022-10-17T18:07:50.770Z,58.31
2022-10-17T18:10:17.468Z,58.63
2022-10-17T18:12:44.163Z,58.41
2022-10-17T18:15:11.220Z,58.33
2022-10-17T18:17:38.002Z,58.66
2022-10-17T18:20:05.334Z,58.79
2022-10-17T18:22:32.332Z,59.06
2022-10-17T18:24:59.466Z,59.06
2022-10-17T18:27:26.691Z,58.77
2022-10-17T18:29:53.602Z,58.68
2022-10-17T18:32:20.819Z,58.43
2022-10-17T18:34:47.524Z,58.64
2022-10-17T18:37:14.216Z,58.45
2022-10-17T18:39:40.928Z,58.75
2022-10-17T18:42:07.601Z,58.76
2022-10-17T18:44:34.537Z,58.61
2022-10-17T18:47:04.107Z,58.43
2022-10-17T18:49:31.421Z,58.37
2022-10-17T18:51:59.506Z,58.56
2022-10-17T18:54:26.273Z,58.75
2022-10-17T18:56:53.375Z,59.34
2022-10-17T18:59:20.479Z,59.30
2022-10-17T19:01:47.394Z,59.37
2022-10-17T19:04:14.251Z,59.54
2022-10-17T19:06:40.887Z,60.10
2022-10-17T19:09:10.237Z,60.49
2022-10-17T19:11:37.566Z,61.01
2022-10-17T19:14:08.202Z,61.08
2022-10-17T19:17:22.726Z,61.41
2022-10-17T19:19:51.928Z,61.71
2022-10-17T19:22:18.713Z,62.13
2022-10-17T19:24:45.319Z,62.49
2022-10-17T19:27:12.262Z,62.80
2022-10-17T19:29:43.539Z,63.32
2022-10-17T19:32:15.723Z,63.93
2022-10-17T19:34:44.887Z,64.22
2022-10-17T19:37:11.651Z,64.45
2022-10-17T19:39:38.252Z,64.68
2022-10-17T19:42:06.864Z,64.95
2022-10-17T19:44:34.787Z,64.94
2022-10-17T19:47:01.419Z,65.01
2022-10-17T19:49:28.348Z,65.11
2022-10-17T19:51:55.019Z,65.26
2022-10-17T19:54:21.675Z,65.22
2022-10-17T19:56:48.375Z,65.16
2022-10-17T19:59:16.097Z,65.19
2022-10-17T20:01:43.174Z,65.32
2022-10-17T20:04:10.961Z,65.23
2022-10-17T20:06:38.205Z,65.58
2022-10-17T20:09:05.510Z,65.87
2022-10-17T20:11:32.328Z,65.88
2022-10-17T20:13:59.467Z,66.03
2022-10-17T20:16:28.105Z,66.28
2022-10-17T20:18:56.010Z,66.40
2022-10-17T20:21:27.230Z,66.53
2022-10-17T20:23:54.249Z,66.59
2022-10-17T20:26:37.466Z,66.73
2022-10-17T20:29:08.918Z,66.94
2022-10-17T20:31:35.738Z,67.06
2022-10-17T20:34:02.461Z,67.11
2022-10-17T20:36:29.093Z,67.20
2022-10-17T20:38:56.631Z,67.52
2022-10-17T20:41:23.763Z,67.59
2022-10-17T20:43:51.531Z,67.68
2022-10-17T20:46:34.993Z,67.59
2022-10-17T20:49:02.482Z,67.73
2022-10-17T20:51:29.200Z,67.97
2022-10-17T20:56:28.442Z,68.48
2022-10-17T20:59:05.803Z,68.63
2022-10-17T21:01:32.948Z,68.79
2022-10-17T21:04:10.471Z,69.01
2022-10-17T21:06:37.559Z,69.21
2022-10-17T21:09:04.838Z,69.30
2022-10-17T21:11:31.532Z,69.42
2022-10-17T21:14:00.197Z,69.60
2022-10-17T21:16:27.351Z,69.91
2022-10-17T21:18:54.813Z,69.93
2022-10-17T21:21:24.684Z,70.15
2022-10-17T21:23:51.515Z,70.30
2022-10-17T21:26:18.397Z,70.34
2022-10-17T21:28:45.960Z,70.46
2022-10-17T21:31:19.087Z,70.43
2022-10-17T21:33:47.698Z,70.66
2022-10-17T21:36:16.820Z,70.66
2022-10-17T21:38:44.350Z,70.60
2022-10-17T21:41:11.391Z,70.70
2022-10-17T21:43:38.343Z,70.89
2022-10-17T21:46:15.352Z,70.89
2022-10-17T21:48:42.590Z,70.92
2022-10-17T21:51:10.952Z,70.82
2022-10-17T21:53:37.759Z,70.79
2022-10-17T21:56:06.166Z,71.02
2022-10-17T21:58:33.236Z,71.13
2022-10-17T22:01:05.455Z,70.97
2022-10-17T22:03:36.767Z,70.94
2022-10-17T22:06:13.048Z,70.76
2022-10-17T22:08:51.033Z,70.73
2022-10-17T22:11:18.783Z,70.67
2022-10-17T22:13:45.537Z,70.75
2022-10-17T22:16:12.925Z,70.87
2022-10-17T22:18:39.596Z,71.01
2022-10-17T22:21:09.067Z,71.14
2022-10-17T22:23:36.091Z,71.15
2022-10-17T22:26:02.825Z,71.33
2022-10-17T22:28:29.546Z,71.35
2022-10-17T22:30:56.178Z,71.21
2022-10-17T22:33:22.867Z,71.16
2022-10-17T22:35:49.756Z,71.30
2022-10-17T22:38:16.377Z,71.13
2022-10-17T22:40:46.563Z,71.11
2022-10-17T22:43:13.368Z,71.08
2022-10-17T22:45:40.075Z,71.08
2022-10-17T22:48:06.958Z,71.06
2022-10-17T22:50:33.627Z,71.13
2022-10-17T22:53:00.496Z,71.22
2022-10-17T22:55:27.099Z,71.18
2022-10-17T22:57:53.804Z,71.20
2022-10-17T23:00:20.690Z,71.35
2022-10-17T23:02:47.395Z,71.36
2022-10-17T23:05:14.053Z,71.26
2022-10-17T23:07:40.749Z,71.45
2022-10-17T23:10:07.687Z,71.53
2022-10-17T23:12:34.355Z,71.66
2022-10-17T23:15:01.147Z,71.63
2022-10-17T23:17:27.751Z,71.78
2022-10-17T23:19:57.009Z,71.55
2022-10-17T23:22:24.483Z,71.70
2022-10-17T23:24:51.242Z,71.65
2022-10-17T23:27:17.847Z,71.55
2022-10-17T23:29:44.545Z,71.46
2022-10-17T23:32:11.364Z,71.45
2022-10-17T23:34:37.959Z,71.46
2022-10-17T23:37:04.680Z,71.51
2022-10-17T23:39:31.349Z,71.64
2022-10-17T23:41:58.054Z,71.59
2022-10-17T23:44:24.960Z,71.78
2022-10-17T23:46:51.698Z,71.75
2022-10-17T23:49:18.349Z,71.82
2022-10-17T23:51:45.076Z,71.93
2022-10-17T23:54:11.695Z,72.00
2022-10-17T23:56:38.338Z,72.04
2022-10-17T23:59:05.027Z,72.29
